createdAt,value
2018-07-01T00:01:20.241Z,18.82
2018-07-01T00:06:03.724Z,18.85
2018-07-01T00:10:50.687Z,18.82
2018-07-01T00:15:34.211Z,18.59
2018-07-01T00:20:18.754Z,18.72
2018-07-01T00:25:02.294Z,18.49
2018-07-01T00:29:46.869Z,18.68
2018-07-01T00:34:30.525Z,18.71
2018-07-01T00:39:13.939Z,18.49
2018-07-01T00:43:58.642Z,17.89
2018-07-01T00:48:42.158Z,18.48
2018-07-01T00:53:26.920Z,18.59
2018-07-01T00:58:10.551Z,18.27
2018-07-01T01:02:54.885Z,17.85
2018-07-01T01:07:38.409Z,18.25
2018-07-01T01:12:23.060Z,18.38
2018-07-01T01:17:06.634Z,18.20
2018-07-01T01:21:53.908Z,18.43
2018-07-01T01:26:37.408Z,17.78
2018-07-01T01:31:24.377Z,18.04
2018-07-01T01:36:07.847Z,18.33
2018-07-01T01:41:08.877Z,18.28
2018-07-01T01:45:57.417Z,18.13
2018-07-01T01:50:59.370Z,18.28
2018-07-01T01:55:49.187Z,18.04
2018-07-01T02:00:38.209Z,18.29
2018-07-01T02:05:47.278Z,18.19
2018-07-01T02:10:35.909Z,18.16
2018-07-01T02:15:24.467Z,18.21
2018-07-01T02:20:10.284Z,18.33
2018-07-01T02:24:54.977Z,18.33
2018-07-01T02:29:41.552Z,18.26
2018-07-01T02:34:25.085Z,18.25
2018-07-01T02:39:10.327Z,18.07
2018-07-01T02:43:53.938Z,17.93
2018-07-01T02:48:37.344Z,17.76
2018-07-01T02:53:22.125Z,17.80
2018-07-01T02:58:05.608Z,18.00
2018-07-01T03:02:52.810Z,17.82
2018-07-01T03:07:36.414Z,17.89
2018-07-01T03:12:20.097Z,17.64
2018-07-01T03:17:03.724Z,17.89
2018-07-01T03:21:48.349Z,18.17
2018-07-01T03:26:32.230Z,18.02
2018-07-01T03:31:16.762Z,17.94
2018-07-01T03:36:00.054Z,17.90
2018-07-01T03:40:44.548Z,17.96
2018-07-01T03:45:28.124Z,18.11
2018-07-01T03:50:12.841Z,18.03
2018-07-01T03:54:56.317Z,18.05
2018-07-01T03:59:43.419Z,18.02
2018-07-01T04:04:26.968Z,18.07
2018-07-01T04:09:20.138Z,18.00
2018-07-01T04:14:15.332Z,17.88
2018-07-01T04:19:04.480Z,17.93
2018-07-01T04:23:59.044Z,17.92
2018-07-01T04:29:00.942Z,17.94
2018-07-01T04:33:56.857Z,17.85
2018-07-01T04:38:40.533Z,18.04
2018-07-01T04:43:24.182Z,18.01
2018-07-01T04:48:07.539Z,17.97
2018-07-01T04:52:51.035Z,18.09
2018-07-01T04:57:34.647Z,18.19
2018-07-01T05:02:18.566Z,18.24
2018-07-01T05:07:02.152Z,18.24
2018-07-01T05:11:49.144Z,18.26
2018-07-01T05:16:32.909Z,18.34
2018-07-01T05:21:19.513Z,18.33
2018-07-01T05:26:03.116Z,18.35
2018-07-01T05:30:50.485Z,18.42
2018-07-01T05:35:34.099Z,18.50
2018-07-01T05:40:33.058Z,18.63
2018-07-01T05:45:20.193Z,18.61
2018-07-01T05:50:07.126Z,18.68
2018-07-01T05:54:50.553Z,18.78
2018-07-01T05:59:37.877Z,18.86
2018-07-01T06:04:22.061Z,18.97
2018-07-01T06:09:10.261Z,18.97
2018-07-01T06:13:53.809Z,19.08
2018-07-01T06:18:40.890Z,19.21
2018-07-01T06:23:24.408Z,19.09
2018-07-01T06:28:08.963Z,19.25
2018-07-01T06:32:53.710Z,19.26
2018-07-01T06:37:37.232Z,19.20
2018-07-01T06:42:20.954Z,19.40
2018-07-01T06:47:04.553Z,19.54
2018-07-01T06:51:51.227Z,19.60
2018-07-01T06:56:34.861Z,19.66
2018-07-01T07:01:22.108Z,19.78
2018-07-01T07:06:05.720Z,19.59
2018-07-01T07:10:53.182Z,19.56
2018-07-01T07:15:36.725Z,19.79
2018-07-01T07:20:21.249Z,19.82
2018-07-01T07:25:04.855Z,20.02
2018-07-01T07:29:51.565Z,19.94
2018-07-01T07:34:34.985Z,19.98
2018-07-01T07:39:22.266Z,19.86
2018-07-01T07:44:05.841Z,20.09
2018-07-01T07:48:49.388Z,20.33
2018-07-01T07:53:32.771Z,20.19
2018-07-01T07:58:17.609Z,20.41
2018-07-01T08:03:02.284Z,20.75
2018-07-01T08:07:45.732Z,20.85
2018-07-01T08:12:32.922Z,20.77
2018-07-01T08:17:16.448Z,20.73
2018-07-01T08:22:01.011Z,21.12
2018-07-01T08:26:44.501Z,21.46
2018-07-01T08:31:31.293Z,21.32
2018-07-01T08:36:14.958Z,21.23
2018-07-01T08:41:01.825Z,21.05
2018-07-01T08:45:45.325Z,22.07
2018-07-01T08:50:29.859Z,21.62
2018-07-01T08:55:13.389Z,21.22
2018-07-01T09:00:00.403Z,21.34
2018-07-01T09:04:43.991Z,21.79
2018-07-01T09:09:28.904Z,21.58
2018-07-01T09:14:12.389Z,21.66
2018-07-01T09:18:59.850Z,22.00
2018-07-01T09:23:43.372Z,21.82
2018-07-01T09:28:28.174Z,21.90
2018-07-01T09:33:11.599Z,21.83
2018-07-01T09:37:55.122Z,22.04
2018-07-01T09:42:42.038Z,21.58
2018-07-01T09:47:25.664Z,21.99
2018-07-01T09:52:12.921Z,22.27
2018-07-01T09:56:56.477Z,22.10
2018-07-01T10:01:43.893Z,21.81
2018-07-01T10:06:28.131Z,21.70
2018-07-01T10:11:14.713Z,22.48
2018-07-01T10:15:58.402Z,22.48
2018-07-01T10:20:45.324Z,22.46
2018-07-01T10:25:28.876Z,22.67
2018-07-01T10:30:16.293Z,22.73
2018-07-01T10:34:59.824Z,22.80
2018-07-01T10:39:44.494Z,22.50
2018-07-01T10:44:28.042Z,22.88
2018-07-01T10:49:13.606Z,23.32
2018-07-01T10:53:57.165Z,22.77
2018-07-01T10:58:40.871Z,22.85
2018-07-01T11:03:24.400Z,23.08
2018-07-01T11:08:09.210Z,23.34
2018-07-01T11:12:52.726Z,23.16
2018-07-01T11:17:36.257Z,23.57
2018-07-01T11:22:23.526Z,23.63
2018-07-01T11:27:07.275Z,23.92
2018-07-01T11:32:09.466Z,23.61
2018-07-01T11:36:53.028Z,23.47
2018-07-01T11:41:37.895Z,23.33
2018-07-01T11:46:21.398Z,23.03
2018-07-01T11:51:06.114Z,23.46
2018-07-01T11:55:49.768Z,23.63
2018-07-01T12:00:34.364Z,23.30
2018-07-01T12:05:17.788Z,23.13
2018-07-01T12:10:05.619Z,23.14
2018-07-01T12:14:49.272Z,22.75
2018-07-01T12:19:33.890Z,22.85
2018-07-01T12:24:17.473Z,23.12
2018-07-01T12:29:01.292Z,23.41
2018-07-01T12:33:44.796Z,22.90
2018-07-01T12:38:33.148Z,22.75
2018-07-01T12:43:16.722Z,23.67
2018-07-01T12:48:03.445Z,23.77
2018-07-01T12:52:47.011Z,23.18
2018-07-01T12:57:30.535Z,23.55
2018-07-01T13:02:13.873Z,23.67
2018-07-01T13:06:57.425Z,23.41
2018-07-01T13:11:44.589Z,23.25
2018-07-01T13:16:28.126Z,23.44
2018-07-01T13:21:12.781Z,23.64
2018-07-01T13:25:56.349Z,23.29
2018-07-01T13:30:41.029Z,23.45
2018-07-01T13:35:24.606Z,23.57
2018-07-01T13:40:11.569Z,23.50
2018-07-01T13:44:55.003Z,23.38
2018-07-01T13:49:46.352Z,23.18
2018-07-01T13:54:30.541Z,23.23
2018-07-01T13:59:15.214Z,23.20
2018-07-01T14:03:58.809Z,23.06
2018-07-01T14:08:45.462Z,23.21
2018-07-01T14:13:29.456Z,23.26
2018-07-01T14:18:13.677Z,23.13
2018-07-01T14:22:57.256Z,23.34
2018-07-01T14:27:44.516Z,23.27
2018-07-01T14:32:28.949Z,23.22
2018-07-01T14:37:12.694Z,23.29
2018-07-01T14:41:56.325Z,23.14
2018-07-01T14:46:40.443Z,23.19
2018-07-01T14:51:25.042Z,23.19
2018-07-01T14:56:08.587Z,23.15
2018-07-01T15:00:55.699Z,23.14
2018-07-01T15:05:39.763Z,23.16
2018-07-01T15:10:26.337Z,23.17
2018-07-01T15:15:09.793Z,23.10
2018-07-01T15:19:54.409Z,23.09
2018-07-01T15:24:37.928Z,22.98
2018-07-01T15:29:21.628Z,23.12
2018-07-01T15:34:05.297Z,22.97
2018-07-01T15:38:48.968Z,22.98
2018-07-01T15:43:32.502Z,23.01
2018-07-01T15:48:17.370Z,22.91
2018-07-01T15:53:00.927Z,23.00
2018-07-01T15:57:50.179Z,22.89
2018-07-01T16:02:33.896Z,22.91
2018-07-01T16:07:21.466Z,23.04
2018-07-01T16:12:04.946Z,22.93
2018-07-01T16:16:48.476Z,22.91
2018-07-01T16:21:33.139Z,22.86
2018-07-01T16:26:22.713Z,22.80
2018-07-01T16:31:06.239Z,22.92
2018-07-01T16:35:49.947Z,22.83
2018-07-01T16:40:38.091Z,22.76
2018-07-01T16:45:21.629Z,22.71
2018-07-01T16:50:06.357Z,22.83
2018-07-01T16:54:49.870Z,22.79
2018-07-01T16:59:34.397Z,23.01
2018-07-01T17:04:17.847Z,22.68
2018-07-01T17:09:02.364Z,22.61
2018-07-01T17:13:45.977Z,22.90
2018-07-01T17:18:30.561Z,22.55
2018-07-01T17:23:14.091Z,22.56
2018-07-01T17:27:58.848Z,22.73
2018-07-01T17:32:47.599Z,22.74
2018-07-01T17:37:34.733Z,22.88
2018-07-01T17:42:18.393Z,22.91
2018-07-01T17:47:02.950Z,22.93
2018-07-01T17:51:46.705Z,22.92
2018-07-01T17:56:30.242Z,21.93
2018-07-01T18:01:18.161Z,22.33
2018-07-01T18:06:02.308Z,22.68
2018-07-01T18:10:48.022Z,22.35
2018-07-01T18:15:31.554Z,22.60
2018-07-01T18:20:16.147Z,21.74
2018-07-01T18:25:08.612Z,22.25
2018-07-01T18:29:45.137Z,22.30
2018-07-01T18:34:29.306Z,22.46
2018-07-01T18:39:16.770Z,21.91
2018-07-01T18:44:01.511Z,21.31
2018-07-01T18:48:45.230Z,21.57
2018-07-01T18:53:30.886Z,22.23
2018-07-01T18:58:14.642Z,22.24
2018-07-01T19:02:58.219Z,22.14
2018-07-01T19:07:47.139Z,21.91
2018-07-01T19:12:30.756Z,21.87
2018-07-01T19:17:21.913Z,22.01
2018-07-01T19:22:05.585Z,21.54
2018-07-01T19:26:50.719Z,21.61
2018-07-01T19:31:34.411Z,20.84
2018-07-01T19:36:18.075Z,20.47
2018-07-01T19:41:02.868Z,21.37
2018-07-01T19:45:47.260Z,20.66
2018-07-01T19:50:32.432Z,21.60
2018-07-01T19:55:20.487Z,20.78
2018-07-01T20:00:09.776Z,21.62
2018-07-01T20:04:54.367Z,21.48
2018-07-01T20:09:38.009Z,21.26
2018-07-01T20:14:22.995Z,21.56
2018-07-01T20:19:08.842Z,20.45
2018-07-01T20:23:54.589Z,20.55
2018-07-01T20:28:40.060Z,20.62
2018-07-01T20:33:24.415Z,20.66
2018-07-01T20:38:08.895Z,20.94
2018-07-01T20:42:53.238Z,20.91
2018-07-01T20:47:37.440Z,20.50
2018-07-01T20:52:21.161Z,21.07
2018-07-01T20:57:05.821Z,20.19
2018-07-01T21:01:49.267Z,20.57
2018-07-01T21:06:35.953Z,20.85
2018-07-01T21:11:19.522Z,21.10
2018-07-01T21:16:02.995Z,20.32
2018-07-01T21:20:55.682Z,20.43
2018-07-01T21:25:39.234Z,21.02
2018-07-01T21:30:23.931Z,20.83
2018-07-01T21:35:07.535Z,20.90
2018-07-01T21:39:52.218Z,21.03
2018-07-01T21:44:35.660Z,21.09
2018-07-01T21:49:20.351Z,20.23
2018-07-01T21:54:03.988Z,20.77
2018-07-01T21:58:47.613Z,20.96
2018-07-01T22:03:31.210Z,20.72
2018-07-01T22:08:17.898Z,19.61
2018-07-01T22:13:01.378Z,20.04
2018-07-01T22:17:45.057Z,20.73
2018-07-01T22:22:28.677Z,19.78
2018-07-01T22:27:12.356Z,19.93
2018-07-01T22:31:55.882Z,20.07
2018-07-01T22:36:41.605Z,20.00
2018-07-01T22:41:25.238Z,20.04
2018-07-01T22:46:08.709Z,19.81
2018-07-01T22:50:55.977Z,20.23
2018-07-01T22:55:39.488Z,20.43
2018-07-01T23:00:26.025Z,20.19
2018-07-01T23:05:09.340Z,20.50
2018-07-01T23:09:56.422Z,20.04
2018-07-01T23:14:39.954Z,20.51
2018-07-01T23:19:27.281Z,20.24
2018-07-01T23:24:10.590Z,19.85
2018-07-01T23:28:58.200Z,20.04
2018-07-01T23:33:41.533Z,20.10
2018-07-01T23:38:25.292Z,19.48
2018-07-01T23:43:08.764Z,19.97
2018-07-01T23:47:52.521Z,19.97
2018-07-01T23:52:36.049Z,19.95
2018-07-01T23:57:19.887Z,20.32
